sensor_id;sensor_type;location;lat;lon;timestamp;P1;durP1;ratioP1;P2;durP2;ratioP2
42742;SDS011;28397;44.552;-0.848;2022-08-27T00:00:12;7.75;;;3.17;;
42742;SDS011;28397;44.552;-0.848;2022-08-27T00:02:40;6.93;;;2.83;;
42742;SDS011;28397;44.552;-0.848;2022-08-27T00:05:07;8.15;;;3.50;;
42742;SDS011;28397;44.552;-0.848;2022-08-27T00:07:34;7.10;;;3.00;;
42742;SDS011;28397;44.552;-0.848;2022-08-27T00:10:00;7.38;;;3.25;;
42742;SDS011;28397;44.552;-0.848;2022-08-27T00:12:26;8.73;;;3.42;;
42742;SDS011;28397;44.552;-0.848;2022-08-27T00:14:52;8.90;;;3.40;;
42742;SDS011;28397;44.552;-0.848;2022-08-27T00:17:17;7.03;;;3.30;;
42742;SDS011;28397;44.552;-0.848;2022-08-27T00:19:43;5.20;;;3.00;;
42742;SDS011;28397;44.552;-0.848;2022-08-27T00:22:09;9.40;;;3.30;;
42742;SDS011;28397;44.552;-0.848;2022-08-27T00:24:36;7.65;;;3.00;;
42742;SDS011;28397;44.552;-0.848;2022-08-27T00:27:02;7.53;;;3.38;;
42742;SDS011;28397;44.552;-0.848;2022-08-27T00:29:28;8.90;;;2.97;;
42742;SDS011;28397;44.552;-0.848;2022-08-27T00:31:54;8.25;;;3.03;;
42742;SDS011;28397;44.552;-0.848;2022-08-27T00:34:20;9.43;;;3.20;;
42742;SDS011;28397;44.552;-0.848;2022-08-27T00:36:47;6.97;;;3.55;;
42742;SDS011;28397;44.552;-0.848;2022-08-27T00:39:13;7.90;;;3.30;;
42742;SDS011;28397;44.552;-0.848;2022-08-27T00:41:39;5.93;;;2.95;;
42742;SDS011;28397;44.552;-0.848;2022-08-27T00:44:06;6.05;;;2.90;;
42742;SDS011;28397;44.552;-0.848;2022-08-27T00:46:45;6.93;;;2.90;;
42742;SDS011;28397;44.552;-0.848;2022-08-27T00:52:07;8.13;;;3.15;;
42742;SDS011;28397;44.552;-0.848;2022-08-27T00:54:45;9.07;;;3.22;;
42742;SDS011;28397;44.552;-0.848;2022-08-27T00:57:11;7.63;;;2.95;;
42742;SDS011;28397;44.552;-0.848;2022-08-27T00:59:38;6.78;;;3.22;;
42742;SDS011;28397;44.552;-0.848;2022-08-27T01:02:06;7.57;;;2.92;;
42742;SDS011;28397;44.552;-0.848;2022-08-27T01:04:58;6.72;;;2.92;;
42742;SDS011;28397;44.552;-0.848;2022-08-27T01:07:27;8.02;;;2.88;;
42742;SDS011;28397;44.552;-0.848;2022-08-27T01:09:56;8.55;;;3.13;;
42742;SDS011;28397;44.552;-0.848;2022-08-27T01:12:25;6.95;;;3.00;;
42742;SDS011;28397;44.552;-0.848;2022-08-27T01:14:52;7.68;;;2.70;;
42742;SDS011;28397;44.552;-0.848;2022-08-27T01:17:20;8.18;;;2.88;;
42742;SDS011;28397;44.552;-0.848;2022-08-27T01:19:56;5.90;;;2.67;;
42742;SDS011;28397;44.552;-0.848;2022-08-27T01:22:34;7.63;;;3.22;;
42742;SDS011;28397;44.552;-0.848;2022-08-27T01:25:15;7.97;;;3.35;;
42742;SDS011;28397;44.552;-0.848;2022-08-27T01:27:42;7.90;;;2.72;;
42742;SDS011;28397;44.552;-0.848;2022-08-27T01:30:09;6.18;;;2.97;;
42742;SDS011;28397;44.552;-0.848;2022-08-27T01:32:37;6.10;;;2.67;;
42742;SDS011;28397;44.552;-0.848;2022-08-27T01:35:05;8.32;;;2.97;;
42742;SDS011;28397;44.552;-0.848;2022-08-27T01:37:33;6.75;;;3.17;;
42742;SDS011;28397;44.552;-0.848;2022-08-27T01:40:00;7.40;;;2.75;;
42742;SDS011;28397;44.552;-0.848;2022-08-27T01:45:08;6.55;;;2.97;;
42742;SDS011;28397;44.552;-0.848;2022-08-27T01:47:39;9.40;;;3.30;;
42742;SDS011;28397;44.552;-0.848;2022-08-27T01:50:10;8.85;;;3.60;;
42742;SDS011;28397;44.552;-0.848;2022-08-27T01:52:38;11.00;;;3.88;;
42742;SDS011;28397;44.552;-0.848;2022-08-27T01:55:08;7.00;;;3.42;;
42742;SDS011;28397;44.552;-0.848;2022-08-27T01:57:36;7.38;;;3.13;;
42742;SDS011;28397;44.552;-0.848;2022-08-27T02:00:13;8.60;;;3.20;;
42742;SDS011;28397;44.552;-0.848;2022-08-27T02:02:45;7.90;;;3.25;;
42742;SDS011;28397;44.552;-0.848;2022-08-27T02:05:11;7.80;;;3.67;;
42742;SDS011;28397;44.552;-0.848;2022-08-27T02:07:38;7.13;;;2.97;;
42742;SDS011;28397;44.552;-0.848;2022-08-27T02:10:05;5.18;;;2.58;;
42742;SDS011;28397;44.552;-0.848;2022-08-27T02:12:34;5.20;;;2.60;;
42742;SDS011;28397;44.552;-0.848;2022-08-27T02:14:59;7.53;;;2.72;;
42742;SDS011;28397;44.552;-0.848;2022-08-27T02:17:25;6.97;;;2.90;;
42742;SDS011;28397;44.552;-0.848;2022-08-27T02:19:52;7.60;;;3.20;;
42742;SDS011;28397;44.552;-0.848;2022-08-27T02:22:18;8.43;;;3.75;;
42742;SDS011;28397;44.552;-0.848;2022-08-27T02:24:44;9.07;;;3.40;;
42742;SDS011;28397;44.552;-0.848;2022-08-27T02:27:10;7.85;;;3.30;;
42742;SDS011;28397;44.552;-0.848;2022-08-27T02:29:36;6.63;;;2.90;;
42742;SDS011;28397;44.552;-0.848;2022-08-27T02:32:02;7.82;;;2.88;;
42742;SDS011;28397;44.552;-0.848;2022-08-27T02:34:28;6.72;;;2.90;;
42742;SDS011;28397;44.552;-0.848;2022-08-27T02:36:54;5.97;;;3.10;;
42742;SDS011;28397;44.552;-0.848;2022-08-27T02:39:19;5.25;;;2.92;;
42742;SDS011;28397;44.552;-0.848;2022-08-27T02:41:45;6.78;;;2.95;;
42742;SDS011;28397;44.552;-0.848;2022-08-27T02:44:12;8.13;;;3.00;;
42742;SDS011;28397;44.552;-0.848;2022-08-27T02:46:38;8.45;;;2.88;;
42742;SDS011;28397;44.552;-0.848;2022-08-27T02:49:04;8.93;;;3.17;;
42742;SDS011;28397;44.552;-0.848;2022-08-27T02:51:31;8.52;;;3.22;;
42742;SDS011;28397;44.552;-0.848;2022-08-27T02:53:57;6.97;;;2.83;;
42742;SDS011;28397;44.552;-0.848;2022-08-27T02:56:24;6.85;;;2.90;;
42742;SDS011;28397;44.552;-0.848;2022-08-27T02:58:50;5.57;;;2.60;;
42742;SDS011;28397;44.552;-0.848;2022-08-27T03:01:15;7.82;;;3.20;;
42742;SDS011;28397;44.552;-0.848;2022-08-27T03:03:41;6.82;;;2.75;;
42742;SDS011;28397;44.552;-0.848;2022-08-27T03:06:07;7.03;;;2.88;;
42742;SDS011;28397;44.552;-0.848;2022-08-27T03:08:33;7.43;;;2.95;;
42742;SDS011;28397;44.552;-0.848;2022-08-27T03:10:59;7.03;;;2.70;;
42742;SDS011;28397;44.552;-0.848;2022-08-27T03:13:26;7.30;;;2.67;;
42742;SDS011;28397;44.552;-0.848;2022-08-27T03:15:52;6.35;;;2.72;;
42742;SDS011;28397;44.552;-0.848;2022-08-27T03:18:18;5.85;;;2.78;;
42742;SDS011;28397;44.552;-0.848;2022-08-27T03:20:50;7.30;;;2.80;;
42742;SDS011;28397;44.552;-0.848;2022-08-27T03:23:18;9.00;;;2.80;;
42742;SDS011;28397;44.552;-0.848;2022-08-27T03:25:47;5.75;;;2.80;;
42742;SDS011;28397;44.552;-0.848;2022-08-27T03:28:21;7.43;;;2.97;;
42742;SDS011;28397;44.552;-0.848;2022-08-27T03:30:56;7.05;;;3.00;;
42742;SDS011;28397;44.552;-0.848;2022-08-27T03:33:25;5.38;;;2.70;;
42742;SDS011;28397;44.552;-0.848;2022-08-27T03:35:55;8.18;;;3.47;;
42742;SDS011;28397;44.552;-0.848;2022-08-27T03:38:21;8.68;;;3.00;;
42742;SDS011;28397;44.552;-0.848;2022-08-27T03:40:47;8.20;;;2.58;;
42742;SDS011;28397;44.552;-0.848;2022-08-27T03:43:14;6.70;;;2.83;;
42742;SDS011;28397;44.552;-0.848;2022-08-27T03:45:42;7.53;;;2.95;;
42742;SDS011;28397;44.552;-0.848;2022-08-27T03:48:09;5.68;;;2.83;;
42742;SDS011;28397;44.552;-0.848;2022-08-27T03:50:37;6.05;;;2.80;;
42742;SDS011;28397;44.552;-0.848;2022-08-27T03:53:04;7.72;;;2.75;;
42742;SDS011;28397;44.552;-0.848;2022-08-27T03:55:29;6.53;;;2.60;;
42742;SDS011;28397;44.552;-0.848;2022-08-27T03:57:55;8.73;;;3.13;;
42742;SDS011;28397;44.552;-0.848;2022-08-27T04:00:21;9.38;;;3.03;;
42742;SDS011;28397;44.552;-0.848;2022-08-27T04:02:48;8.30;;;2.80;;
42742;SDS011;28397;44.552;-0.848;2022-08-27T04:05:15;6.72;;;2.70;;
42742;SDS011;28397;44.552;-0.848;2022-08-27T04:07:41;7.07;;;2.72;;
42742;SDS011;28397;44.552;-0.848;2022-08-27T04:10:08;6.80;;;2.90;;
42742;SDS011;28397;44.552;-0.848;2022-08-27T04:12:36;6.05;;;2.58;;
42742;SDS011;28397;44.552;-0.848;2022-08-27T04:15:02;7.60;;;2.92;;
42742;SDS011;28397;44.552;-0.848;2022-08-27T04:17:29;6.40;;;2.90;;
42742;SDS011;28397;44.552;-0.848;2022-08-27T04:19:55;7.82;;;3.47;;
42742;SDS011;28397;44.552;-0.848;2022-08-27T04:22:21;5.28;;;2.60;;
42742;SDS011;28397;44.552;-0.848;2022-08-27T04:24:48;6.25;;;2.92;;
42742;SDS011;28397;44.552;-0.848;2022-08-27T04:27:14;7.38;;;3.20;;
42742;SDS011;28397;44.552;-0.848;2022-08-27T04:29:40;4.57;;;2.60;;
42742;SDS011;28397;44.552;-0.848;2022-08-27T04:32:07;5.65;;;2.90;;
42742;SDS011;28397;44.552;-0.848;2022-08-27T04:34:32;7.60;;;2.78;;
42742;SDS011;28397;44.552;-0.848;2022-08-27T04:36:59;6.40;;;2.70;;
42742;SDS011;28397;44.552;-0.848;2022-08-27T04:39:25;5.43;;;2.20;;
42742;SDS011;28397;44.552;-0.848;2022-08-27T04:41:53;6.13;;;2.72;;
42742;SDS011;28397;44.552;-0.848;2022-08-27T04:44:21;6.65;;;2.83;;
42742;SDS011;28397;44.552;-0.848;2022-08-27T04:46:47;8.05;;;3.10;;
42742;SDS011;28397;44.552;-0.848;2022-08-27T04:49:15;7.70;;;2.95;;
42742;SDS011;28397;44.552;-0.848;2022-08-27T04:51:41;5.53;;;2.78;;
42742;SDS011;28397;44.552;-0.848;2022-08-27T04:54:07;5.72;;;2.78;;
42742;SDS011;28397;44.552;-0.848;2022-08-27T04:56:34;7.93;;;2.95;;
42742;SDS011;28397;44.552;-0.848;2022-08-27T04:59:05;6.22;;;3.00;;
42742;SDS011;28397;44.552;-0.848;2022-08-27T05:01:34;4.93;;;2.97;;
42742;SDS011;28397;44.552;-0.848;2022-08-27T05:04:00;8.57;;;3.10;;
42742;SDS011;28397;44.552;-0.848;2022-08-27T05:06:27;6.00;;;2.92;;
42742;SDS011;28397;44.552;-0.848;2022-08-27T05:08:53;5.70;;;2.83;;
42742;SDS011;28397;44.552;-0.848;2022-08-27T05:11:19;5.50;;;2.63;;
42742;SDS011;28397;44.552;-0.848;2022-08-27T05:13:46;6.43;;;2.55;;
42742;SDS011;28397;44.552;-0.848;2022-08-27T05:16:14;7.32;;;3.10;;
42742;SDS011;28397;44.552;-0.848;2022-08-27T05:18:42;9.95;;;3.30;;
42742;SDS011;28397;44.552;-0.848;2022-08-27T05:21:14;5.90;;;2.80;;
42742;SDS011;28397;44.552;-0.848;2022-08-27T05:23:41;5.05;;;2.75;;
42742;SDS011;28397;44.552;-0.848;2022-08-27T05:26:07;4.80;;;2.42;;
42742;SDS011;28397;44.552;-0.848;2022-08-27T05:28:32;5.25;;;2.55;;
42742;SDS011;28397;44.552;-0.848;2022-08-27T05:31:05;6.47;;;2.70;;
42742;SDS011;28397;44.552;-0.848;2022-08-27T05:33:32;5.35;;;2.70;;
42742;SDS011;28397;44.552;-0.848;2022-08-27T05:35:58;4.50;;;2.60;;
42742;SDS011;28397;44.552;-0.848;2022-08-27T05:38:25;5.97;;;2.70;;
42742;SDS011;28397;44.552;-0.848;2022-08-27T05:41:06;6.07;;;2.65;;
42742;SDS011;28397;44.552;-0.848;2022-08-27T05:43:37;4.88;;;2.90;;
42742;SDS011;28397;44.552;-0.848;2022-08-27T05:46:06;5.70;;;2.90;;
42742;SDS011;28397;44.552;-0.848;2022-08-27T05:48:34;5.53;;;2.60;;
42742;SDS011;28397;44.552;-0.848;2022-08-27T05:51:08;5.18;;;2.60;;
42742;SDS011;28397;44.552;-0.848;2022-08-27T05:53:43;6.45;;;2.95;;
42742;SDS011;28397;44.552;-0.848;2022-08-27T05:56:16;4.72;;;2.90;;
42742;SDS011;28397;44.552;-0.848;2022-08-27T05:58:46;6.35;;;3.40;;
42742;SDS011;28397;44.552;-0.848;2022-08-27T06:01:33;4.38;;;3.15;;
42742;SDS011;28397;44.552;-0.848;2022-08-27T06:04:02;7.03;;;3.30;;
42742;SDS011;28397;44.552;-0.848;2022-08-27T06:06:29;6.05;;;2.65;;
42742;SDS011;28397;44.552;-0.848;2022-08-27T06:08:58;6.00;;;2.80;;
42742;SDS011;28397;44.552;-0.848;2022-08-27T06:11:24;3.92;;;2.60;;
42742;SDS011;28397;44.552;-0.848;2022-08-27T06:13:50;4.43;;;2.85;;
42742;SDS011;28397;44.552;-0.848;2022-08-27T06:16:16;5.90;;;2.95;;
42742;SDS011;28397;44.552;-0.848;2022-08-27T06:18:44;4.10;;;2.55;;
42742;SDS011;28397;44.552;-0.848;2022-08-27T06:21:11;3.05;;;2.35;;
42742;SDS011;28397;44.552;-0.848;2022-08-27T06:23:38;5.32;;;2.50;;
42742;SDS011;28397;44.552;-0.848;2022-08-27T06:26:05;4.28;;;2.40;;
42742;SDS011;28397;44.552;-0.848;2022-08-27T06:28:32;4.07;;;2.50;;
42742;SDS011;28397;44.552;-0.848;2022-08-27T06:31:06;4.03;;;2.40;;
42742;SDS011;28397;44.552;-0.848;2022-08-27T06:33:34;3.83;;;2.50;;
42742;SDS011;28397;44.552;-0.848;2022-08-27T06:36:01;2.88;;;2.40;;
42742;SDS011;28397;44.552;-0.848;2022-08-27T06:38:29;4.65;;;2.40;;
42742;SDS011;28397;44.552;-0.848;2022-08-27T06:40:56;3.10;;;2.75;;
42742;SDS011;28397;44.552;-0.848;2022-08-27T06:43:22;3.58;;;2.30;;
42742;SDS011;28397;44.552;-0.848;2022-08-27T06:45:49;3.40;;;2.55;;
42742;SDS011;28397;44.552;-0.848;2022-08-27T06:48:15;2.78;;;2.20;;
42742;SDS011;28397;44.552;-0.848;2022-08-27T06:50:42;4.25;;;2.63;;
42742;SDS011;28397;44.552;-0.848;2022-08-27T06:53:08;4.50;;;2.70;;
42742;SDS011;28397;44.552;-0.848;2022-08-27T06:55:42;4.20;;;2.45;;
42742;SDS011;28397;44.552;-0.848;2022-08-27T06:58:09;4.03;;;2.55;;
42742;SDS011;28397;44.552;-0.848;2022-08-27T07:00:36;5.63;;;2.80;;
42742;SDS011;28397;44.552;-0.848;2022-08-27T07:03:01;3.40;;;2.58;;
42742;SDS011;28397;44.552;-0.848;2022-08-27T07:05:29;3.17;;;2.72;;
42742;SDS011;28397;44.552;-0.848;2022-08-27T07:08:00;4.95;;;2.60;;
42742;SDS011;28397;44.552;-0.848;2022-08-27T07:10:26;3.92;;;2.28;;
42742;SDS011;28397;44.552;-0.848;2022-08-27T07:12:52;3.67;;;2.38;;
42742;SDS011;28397;44.552;-0.848;2022-08-27T07:15:18;3.50;;;2.50;;
42742;SDS011;28397;44.552;-0.848;2022-08-27T07:17:44;3.60;;;2.42;;
42742;SDS011;28397;44.552;-0.848;2022-08-27T07:20:10;3.53;;;2.70;;
42742;SDS011;28397;44.552;-0.848;2022-08-27T07:22:39;4.78;;;2.38;;
42742;SDS011;28397;44.552;-0.848;2022-08-27T07:25:09;5.53;;;2.70;;
42742;SDS011;28397;44.552;-0.848;2022-08-27T07:27:39;4.97;;;2.55;;
42742;SDS011;28397;44.552;-0.848;2022-08-27T07:30:07;3.85;;;2.70;;
42742;SDS011;28397;44.552;-0.848;2022-08-27T07:32:36;3.22;;;2.47;;
42742;SDS011;28397;44.552;-0.848;2022-08-27T07:35:02;3.78;;;2.40;;
42742;SDS011;28397;44.552;-0.848;2022-08-27T07:37:28;3.45;;;2.60;;
42742;SDS011;28397;44.552;-0.848;2022-08-27T07:39:53;4.55;;;2.50;;
42742;SDS011;28397;44.552;-0.848;2022-08-27T07:42:19;4.95;;;2.60;;
42742;SDS011;28397;44.552;-0.848;2022-08-27T07:45:03;3.05;;;2.50;;
42742;SDS011;28397;44.552;-0.848;2022-08-27T07:47:30;3.92;;;2.50;;
42742;SDS011;28397;44.552;-0.848;2022-08-27T07:49:56;3.10;;;2.83;;
42742;SDS011;28397;44.552;-0.848;2022-08-27T07:52:22;4.43;;;2.90;;
42742;SDS011;28397;44.552;-0.848;2022-08-27T07:54:48;3.08;;;2.75;;
42742;SDS011;28397;44.552;-0.848;2022-08-27T07:57:15;4.15;;;3.17;;
42742;SDS011;28397;44.552;-0.848;2022-08-27T07:59:41;4.63;;;2.92;;
42742;SDS011;28397;44.552;-0.848;2022-08-27T08:02:07;5.18;;;2.88;;
42742;SDS011;28397;44.552;-0.848;2022-08-27T08:04:33;6.13;;;2.90;;
42742;SDS011;28397;44.552;-0.848;2022-08-27T08:06:59;5.35;;;3.55;;
42742;SDS011;28397;44.552;-0.848;2022-08-27T08:09:25;7.63;;;3.00;;
42742;SDS011;28397;44.552;-0.848;2022-08-27T08:11:52;6.50;;;5.68;;
42742;SDS011;28397;44.552;-0.848;2022-08-27T08:14:18;10.55;;;5.82;;
42742;SDS011;28397;44.552;-0.848;2022-08-27T08:16:45;7.78;;;5.38;;
42742;SDS011;28397;44.552;-0.848;2022-08-27T08:19:11;9.55;;;3.50;;
42742;SDS011;28397;44.552;-0.848;2022-08-27T08:21:37;7.00;;;3.90;;
42742;SDS011;28397;44.552;-0.848;2022-08-27T08:24:03;8.20;;;5.78;;
42742;SDS011;28397;44.552;-0.848;2022-08-27T08:26:29;9.38;;;8.63;;
42742;SDS011;28397;44.552;-0.848;2022-08-27T08:28:55;7.95;;;7.25;;
42742;SDS011;28397;44.552;-0.848;2022-08-27T08:31:21;12.20;;;11.25;;
42742;SDS011;28397;44.552;-0.848;2022-08-27T08:33:51;15.02;;;14.05;;
42742;SDS011;28397;44.552;-0.848;2022-08-27T08:36:17;9.65;;;9.05;;
42742;SDS011;28397;44.552;-0.848;2022-08-27T08:38:44;10.02;;;9.23;;
42742;SDS011;28397;44.552;-0.848;2022-08-27T08:43:45;5.78;;;3.33;;
42742;SDS011;28397;44.552;-0.848;2022-08-27T08:46:58;2.95;;;2.75;;
42742;SDS011;28397;44.552;-0.848;2022-08-27T08:49:24;4.65;;;2.65;;
42742;SDS011;28397;44.552;-0.848;2022-08-27T08:52:07;2.95;;;2.55;;
42742;SDS011;28397;44.552;-0.848;2022-08-27T08:54:41;3.60;;;2.78;;
42742;SDS011;28397;44.552;-0.848;2022-08-27T08:57:26;3.28;;;2.70;;
42742;SDS011;28397;44.552;-0.848;2022-08-27T09:00:05;4.10;;;2.60;;
42742;SDS011;28397;44.552;-0.848;2022-08-27T09:02:36;4.38;;;2.70;;
42742;SDS011;28397;44.552;-0.848;2022-08-27T09:05:06;3.33;;;2.70;;
42742;SDS011;28397;44.552;-0.848;2022-08-27T09:13:00;6.43;;;2.55;;
42742;SDS011;28397;44.552;-0.848;2022-08-27T09:15:28;4.88;;;2.65;;
42742;SDS011;28397;44.552;-0.848;2022-08-27T09:18:04;3.95;;;2.53;;
42742;SDS011;28397;44.552;-0.848;2022-08-27T09:20:36;4.75;;;3.05;;
42742;SDS011;28397;44.552;-0.848;2022-08-27T09:23:15;4.45;;;2.60;;
42742;SDS011;28397;44.552;-0.848;2022-08-27T09:25:47;5.80;;;2.85;;
42742;SDS011;28397;44.552;-0.848;2022-08-27T09:28:14;3.53;;;2.40;;
42742;SDS011;28397;44.552;-0.848;2022-08-27T09:31:04;3.08;;;2.70;;
42742;SDS011;28397;44.552;-0.848;2022-08-27T09:33:32;4.75;;;2.60;;
42742;SDS011;28397;44.552;-0.848;2022-08-27T09:36:00;2.97;;;2.70;;
42742;SDS011;28397;44.552;-0.848;2022-08-27T09:38:29;5.30;;;2.50;;
42742;SDS011;28397;44.552;-0.848;2022-08-27T09:40:58;2.95;;;2.42;;
42742;SDS011;28397;44.552;-0.848;2022-08-27T09:43:28;2.63;;;2.42;;
42742;SDS011;28397;44.552;-0.848;2022-08-27T09:46:06;2.58;;;2.30;;
42742;SDS011;28397;44.552;-0.848;2022-08-27T09:48:49;3.13;;;2.20;;
42742;SDS011;28397;44.552;-0.848;2022-08-27T09:51:23;2.20;;;1.95;;
42742;SDS011;28397;44.552;-0.848;2022-08-27T09:53:58;2.70;;;2.20;;
42742;SDS011;28397;44.552;-0.848;2022-08-27T09:56:39;2.40;;;2.20;;
42742;SDS011;28397;44.552;-0.848;2022-08-27T10:01:50;3.17;;;2.15;;
42742;SDS011;28397;44.552;-0.848;2022-08-27T10:07:22;3.30;;;2.17;;
42742;SDS011;28397;44.552;-0.848;2022-08-27T10:10:25;6.13;;;2.03;;
42742;SDS011;28397;44.552;-0.848;2022-08-27T10:13:21;26.33;;;6.00;;
42742;SDS011;28397;44.552;-0.848;2022-08-27T10:23:52;1.95;;;1.70;;
42742;SDS011;28397;44.552;-0.848;2022-08-27T10:26:47;6.95;;;1.95;;
42742;SDS011;28397;44.552;-0.848;2022-08-27T10:29:42;2.50;;;1.40;;
42742;SDS011;28397;44.552;-0.848;2022-08-27T10:35:17;2.55;;;1.70;;
42742;SDS011;28397;44.552;-0.848;2022-08-27T10:40:47;1.40;;;1.30;;
42742;SDS011;28397;44.552;-0.848;2022-08-27T10:51:52;2.97;;;1.58;;
42742;SDS011;28397;44.552;-0.848;2022-08-27T11:00:19;2.17;;;1.60;;
42742;SDS011;28397;44.552;-0.848;2022-08-27T11:05:17;1.73;;;1.63;;
42742;SDS011;28397;44.552;-0.848;2022-08-27T11:07:59;2.83;;;1.80;;
42742;SDS011;28397;44.552;-0.848;2022-08-27T11:10:29;2.50;;;1.80;;
42742;SDS011;28397;44.552;-0.848;2022-08-27T11:12:59;3.08;;;1.45;;
42742;SDS011;28397;44.552;-0.848;2022-08-27T11:15:32;4.70;;;4.25;;
42742;SDS011;28397;44.552;-0.848;2022-08-27T11:21:26;1.83;;;1.67;;
42742;SDS011;28397;44.552;-0.848;2022-08-27T11:23:46;1.88;;;1.50;;
42742;SDS011;28397;44.552;-0.848;2022-08-27T11:26:18;1.60;;;1.50;;
42742;SDS011;28397;44.552;-0.848;2022-08-27T11:28:51;1.55;;;1.45;;
42742;SDS011;28397;44.552;-0.848;2022-08-27T11:37:16;1.75;;;1.48;;
42742;SDS011;28397;44.552;-0.848;2022-08-27T11:42:39;2.13;;;1.40;;
42742;SDS011;28397;44.552;-0.848;2022-08-27T11:45:07;1.63;;;1.40;;
42742;SDS011;28397;44.552;-0.848;2022-08-27T11:47:49;1.85;;;1.50;;
42742;SDS011;28397;44.552;-0.848;2022-08-27T11:50:20;1.50;;;1.40;;
42742;SDS011;28397;44.552;-0.848;2022-08-27T11:53:01;1.40;;;1.30;;
42742;SDS011;28397;44.552;-0.848;2022-08-27T11:55:32;1.48;;;1.30;;
42742;SDS011;28397;44.552;-0.848;2022-08-27T11:58:02;2.35;;;1.40;;
42742;SDS011;28397;44.552;-0.848;2022-08-27T12:00:32;2.40;;;1.50;;
42742;SDS011;28397;44.552;-0.848;2022-08-27T12:03:00;1.67;;;1.58;;
42742;SDS011;28397;44.552;-0.848;2022-08-27T12:16:38;4.63;;;4.03;;
42742;SDS011;28397;44.552;-0.848;2022-08-27T12:22:18;3.95;;;2.00;;
42742;SDS011;28397;44.552;-0.848;2022-08-27T12:24:56;2.78;;;2.25;;
42742;SDS011;28397;44.552;-0.848;2022-08-27T12:32:24;2.17;;;1.83;;
42742;SDS011;28397;44.552;-0.848;2022-08-27T12:40:58;1.52;;;1.40;;
42742;SDS011;28397;44.552;-0.848;2022-08-27T12:43:30;2.13;;;1.30;;
42742;SDS011;28397;44.552;-0.848;2022-08-27T12:46:00;3.38;;;1.60;;
42742;SDS011;28397;44.552;-0.848;2022-08-27T12:48:45;3.30;;;1.40;;
42742;SDS011;28397;44.552;-0.848;2022-08-27T12:51:25;2.45;;;1.30;;
42742;SDS011;28397;44.552;-0.848;2022-08-27T12:56:31;1.40;;;1.30;;
42742;SDS011;28397;44.552;-0.848;2022-08-27T13:02:14;2.45;;;1.20;;
42742;SDS011;28397;44.552;-0.848;2022-08-27T13:04:49;1.40;;;1.25;;
42742;SDS011;28397;44.552;-0.848;2022-08-27T13:07:25;2.88;;;1.50;;
42742;SDS011;28397;44.552;-0.848;2022-08-27T13:09:55;2.28;;;1.20;;
42742;SDS011;28397;44.552;-0.848;2022-08-27T13:12:31;1.77;;;1.40;;
42742;SDS011;28397;44.552;-0.848;2022-08-27T13:15:04;4.28;;;1.50;;
42742;SDS011;28397;44.552;-0.848;2022-08-27T13:17:31;1.83;;;1.40;;
42742;SDS011;28397;44.552;-0.848;2022-08-27T13:20:11;2.65;;;1.45;;
42742;SDS011;28397;44.552;-0.848;2022-08-27T13:22:49;1.70;;;1.25;;
42742;SDS011;28397;44.552;-0.848;2022-08-27T13:25:29;1.33;;;1.23;;
42742;SDS011;28397;44.552;-0.848;2022-08-27T13:28:02;1.70;;;1.60;;
42742;SDS011;28397;44.552;-0.848;2022-08-27T13:30:36;1.40;;;1.30;;
42742;SDS011;28397;44.552;-0.848;2022-08-27T13:33:10;2.58;;;1.50;;
42742;SDS011;28397;44.552;-0.848;2022-08-27T13:35:44;1.40;;;1.30;;
42742;SDS011;28397;44.552;-0.848;2022-08-27T13:38:12;1.50;;;1.40;;
42742;SDS011;28397;44.552;-0.848;2022-08-27T13:40:53;1.58;;;1.40;;
42742;SDS011;28397;44.552;-0.848;2022-08-27T13:43:37;2.25;;;1.48;;
42742;SDS011;28397;44.552;-0.848;2022-08-27T13:46:12;1.50;;;1.40;;
42742;SDS011;28397;44.552;-0.848;2022-08-27T13:48:42;2.15;;;1.50;;
42742;SDS011;28397;44.552;-0.848;2022-08-27T13:51:11;2.50;;;1.42;;
42742;SDS011;28397;44.552;-0.848;2022-08-27T13:53:46;1.52;;;1.42;;
42742;SDS011;28397;44.552;-0.848;2022-08-27T13:56:33;1.80;;;1.40;;
42742;SDS011;28397;44.552;-0.848;2022-08-27T13:59:08;2.25;;;1.35;;
42742;SDS011;28397;44.552;-0.848;2022-08-27T14:04:01;1.52;;;1.40;;
42742;SDS011;28397;44.552;-0.848;2022-08-27T14:11:55;1.83;;;1.38;;
42742;SDS011;28397;44.552;-0.848;2022-08-27T14:14:26;1.90;;;1.40;;
42742;SDS011;28397;44.552;-0.848;2022-08-27T14:16:55;1.55;;;1.30;;
42742;SDS011;28397;44.552;-0.848;2022-08-27T14:19:24;5.13;;;1.45;;
42742;SDS011;28397;44.552;-0.848;2022-08-27T14:21:52;1.63;;;1.40;;
42742;SDS011;28397;44.552;-0.848;2022-08-27T14:24:18;2.28;;;1.40;;
42742;SDS011;28397;44.552;-0.848;2022-08-27T14:26:47;1.77;;;1.20;;
42742;SDS011;28397;44.552;-0.848;2022-08-27T14:29:14;1.70;;;1.30;;
42742;SDS011;28397;44.552;-0.848;2022-08-27T14:31:41;2.20;;;1.40;;
42742;SDS011;28397;44.552;-0.848;2022-08-27T14:34:07;3.10;;;1.30;;
42742;SDS011;28397;44.552;-0.848;2022-08-27T14:36:33;2.65;;;1.40;;
42742;SDS011;28397;44.552;-0.848;2022-08-27T14:39:03;2.78;;;1.40;;
42742;SDS011;28397;44.552;-0.848;2022-08-27T14:41:29;1.40;;;1.30;;
42742;SDS011;28397;44.552;-0.848;2022-08-27T14:43:54;2.95;;;1.40;;
42742;SDS011;28397;44.552;-0.848;2022-08-27T14:46:38;2.78;;;1.50;;
42742;SDS011;28397;44.552;-0.848;2022-08-27T14:49:12;2.33;;;1.50;;
42742;SDS011;28397;44.552;-0.848;2022-08-27T14:51:40;2.63;;;1.40;;
42742;SDS011;28397;44.552;-0.848;2022-08-27T14:54:09;2.38;;;1.60;;
42742;SDS011;28397;44.552;-0.848;2022-08-27T14:56:36;1.50;;;1.35;;
42742;SDS011;28397;44.552;-0.848;2022-08-27T14:59:02;5.53;;;1.60;;
42742;SDS011;28397;44.552;-0.848;2022-08-27T15:01:28;3.95;;;1.40;;
42742;SDS011;28397;44.552;-0.848;2022-08-27T15:03:54;1.98;;;1.40;;
42742;SDS011;28397;44.552;-0.848;2022-08-27T15:06:21;1.38;;;1.27;;
42742;SDS011;28397;44.552;-0.848;2022-08-27T15:08:47;1.30;;;1.20;;
42742;SDS011;28397;44.552;-0.848;2022-08-27T15:11:26;3.22;;;1.30;;
42742;SDS011;28397;44.552;-0.848;2022-08-27T15:13:55;1.58;;;1.33;;
42742;SDS011;28397;44.552;-0.848;2022-08-27T15:16:26;2.03;;;1.42;;
42742;SDS011;28397;44.552;-0.848;2022-08-27T15:18:54;1.65;;;1.40;;
42742;SDS011;28397;44.552;-0.848;2022-08-27T15:21:20;1.77;;;1.45;;
42742;SDS011;28397;44.552;-0.848;2022-08-27T15:23:47;3.28;;;1.45;;
42742;SDS011;28397;44.552;-0.848;2022-08-27T15:26:14;1.75;;;1.38;;
42742;SDS011;28397;44.552;-0.848;2022-08-27T15:28:39;2.03;;;1.30;;
42742;SDS011;28397;44.552;-0.848;2022-08-27T15:31:05;2.67;;;1.40;;
42742;SDS011;28397;44.552;-0.848;2022-08-27T15:33:31;2.30;;;1.50;;
42742;SDS011;28397;44.552;-0.848;2022-08-27T15:35:57;2.55;;;1.63;;
42742;SDS011;28397;44.552;-0.848;2022-08-27T15:38:23;1.40;;;1.30;;
42742;SDS011;28397;44.552;-0.848;2022-08-27T15:40:48;3.03;;;1.48;;
42742;SDS011;28397;44.552;-0.848;2022-08-27T15:43:15;1.48;;;1.38;;
42742;SDS011;28397;44.552;-0.848;2022-08-27T15:45:41;2.95;;;1.40;;
42742;SDS011;28397;44.552;-0.848;2022-08-27T15:48:07;1.50;;;1.40;;
42742;SDS011;28397;44.552;-0.848;2022-08-27T15:50:34;3.55;;;1.50;;
42742;SDS011;28397;44.552;-0.848;2022-08-27T15:53:01;2.25;;;1.50;;
42742;SDS011;28397;44.552;-0.848;2022-08-27T15:55:30;1.65;;;1.52;;
42742;SDS011;28397;44.552;-0.848;2022-08-27T15:57:59;1.63;;;1.50;;
42742;SDS011;28397;44.552;-0.848;2022-08-27T16:00:25;1.73;;;1.45;;
42742;SDS011;28397;44.552;-0.848;2022-08-27T16:02:52;3.17;;;1.55;;
42742;SDS011;28397;44.552;-0.848;2022-08-27T16:05:18;3.05;;;1.55;;
42742;SDS011;28397;44.552;-0.848;2022-08-27T16:07:46;1.73;;;1.50;;
42742;SDS011;28397;44.552;-0.848;2022-08-27T16:10:13;2.03;;;1.50;;
42742;SDS011;28397;44.552;-0.848;2022-08-27T16:12:39;2.50;;;1.38;;
42742;SDS011;28397;44.552;-0.848;2022-08-27T16:15:05;3.30;;;1.60;;
42742;SDS011;28397;44.552;-0.848;2022-08-27T16:17:32;1.92;;;1.48;;
42742;SDS011;28397;44.552;-0.848;2022-08-27T16:19:58;2.70;;;1.50;;
42742;SDS011;28397;44.552;-0.848;2022-08-27T16:22:24;3.28;;;1.77;;
42742;SDS011;28397;44.552;-0.848;2022-08-27T16:24:50;1.75;;;1.58;;
42742;SDS011;28397;44.552;-0.848;2022-08-27T16:27:15;3.55;;;1.40;;